createdAt,value
2022-10-25T00:00:39.397Z,18.23
2022-10-25T00:03:11.706Z,18.31
2022-10-25T00:05:40.300Z,18.26
2022-10-25T00:08:08.498Z,18.35
2022-10-25T00:10:36.023Z,18.36
2022-10-25T00:13:02.873Z,18.37
2022-10-25T00:15:30.767Z,18.42
2022-10-25T00:17:57.754Z,18.47
2022-10-25T00:20:24.379Z,18.41
2022-10-25T00:22:53.458Z,18.49
2022-10-25T00:25:20.178Z,18.49
2022-10-25T00:27:46.853Z,18.48
2022-10-25T00:30:13.880Z,18.49
2022-10-25T00:32:40.465Z,18.59
2022-10-25T00:35:07.387Z,18.57
2022-10-25T00:37:35.233Z,18.52
2022-10-25T00:40:01.895Z,18.57
2022-10-25T00:42:28.550Z,18.45
2022-10-25T00:44:58.796Z,18.58
2022-10-25T00:47:46.529Z,18.58
2022-10-25T00:50:25.311Z,18.61
2022-10-25T00:52:56.864Z,18.61
2022-10-25T00:55:27.922Z,18.59
2022-10-25T00:58:07.099Z,18.59
2022-10-25T01:00:33.845Z,18.58
2022-10-25T01:03:01.760Z,18.58
2022-10-25T01:05:28.471Z,18.56
2022-10-25T01:07:54.971Z,18.53
2022-10-25T01:10:21.525Z,18.55
2022-10-25T01:12:51.272Z,18.53
2022-10-25T01:15:24.199Z,18.28
2022-10-25T01:18:03.892Z,18.36
2022-10-25T01:20:54.149Z,18.41
2022-10-25T01:23:54.618Z,18.43
2022-10-25T01:26:39.252Z,18.38
2022-10-25T01:29:21.158Z,18.34
2022-10-25T01:32:00.834Z,18.33
2022-10-25T01:34:37.695Z,18.26
2022-10-25T01:37:06.832Z,18.04
2022-10-25T01:39:42.295Z,18.08
2022-10-25T01:42:22.174Z,18.05
2022-10-25T01:45:15.544Z,17.68
2022-10-25T01:47:55.686Z,17.82
2022-10-25T01:50:27.746Z,17.85
2022-10-25T01:55:27.747Z,17.85
2022-10-25T01:58:30.372Z,17.87
2022-10-25T02:01:28.572Z,17.82
2022-10-25T02:04:13.387Z,17.81
2022-10-25T02:06:49.603Z,17.74
2022-10-25T02:09:31.502Z,17.75
2022-10-25T02:12:00.626Z,17.73
2022-10-25T02:14:38.055Z,17.79
2022-10-25T02:17:27.493Z,17.74
2022-10-25T02:19:59.877Z,17.70
2022-10-25T02:22:31.496Z,17.61
2022-10-25T02:24:58.119Z,17.59
2022-10-25T02:27:26.563Z,17.34
2022-10-25T02:29:54.671Z,16.99
2022-10-25T02:32:21.610Z,17.22
2022-10-25T02:34:48.415Z,17.21
2022-10-25T02:37:14.956Z,17.16
2022-10-25T02:39:41.512Z,17.17
2022-10-25T02:42:08.012Z,17.21
2022-10-25T02:44:34.512Z,17.23
2022-10-25T02:47:01.069Z,17.23
2022-10-25T02:49:27.607Z,17.22
2022-10-25T02:51:54.156Z,17.22
2022-10-25T02:54:20.657Z,17.13
2022-10-25T02:56:47.157Z,17.15
2022-10-25T02:59:13.688Z,17.15
2022-10-25T03:01:40.267Z,17.13
2022-10-25T03:04:06.769Z,17.10
2022-10-25T03:06:33.241Z,17.11
2022-10-25T03:08:59.717Z,17.03
2022-10-25T03:11:26.329Z,17.02
2022-10-25T03:13:52.915Z,17.02
2022-10-25T03:16:19.589Z,16.98
2022-10-25T03:18:46.146Z,16.96
2022-10-25T03:21:12.717Z,16.95
2022-10-25T03:23:39.294Z,16.91
2022-10-25T03:26:05.836Z,16.86
2022-10-25T03:28:32.316Z,16.85
2022-10-25T03:30:59.152Z,16.86
2022-10-25T03:33:26.352Z,16.84
2022-10-25T03:35:54.145Z,16.81
2022-10-25T03:38:22.043Z,16.70
2022-10-25T03:40:49.305Z,16.66
2022-10-25T03:43:15.959Z,16.61
2022-10-25T03:45:42.499Z,16.61
2022-10-25T03:48:08.988Z,16.58
2022-10-25T03:50:35.570Z,16.57
2022-10-25T03:53:02.535Z,16.60
2022-10-25T03:55:29.101Z,16.65
2022-10-25T03:57:55.627Z,16.59
2022-10-25T04:00:22.208Z,16.55
2022-10-25T04:02:56.051Z,16.56
2022-10-25T04:05:24.866Z,16.59
2022-10-25T04:07:51.658Z,16.60
2022-10-25T04:10:18.357Z,16.60
2022-10-25T04:13:02.659Z,16.59
2022-10-25T04:15:29.243Z,16.47
2022-10-25T04:17:55.677Z,16.30
2022-10-25T04:20:22.247Z,16.33
2022-10-25T04:22:56.636Z,16.28
2022-10-25T04:25:25.570Z,16.33
2022-10-25T04:27:52.126Z,16.30
2022-10-25T04:30:18.854Z,16.29
2022-10-25T04:32:45.719Z,16.30
2022-10-25T04:35:12.501Z,16.33
2022-10-25T04:37:39.044Z,16.22
2022-10-25T04:40:06.276Z,16.30
2022-10-25T04:42:33.525Z,16.36
2022-10-25T04:45:00.376Z,16.35
2022-10-25T04:47:30.782Z,16.27
2022-10-25T04:49:57.263Z,16.36
2022-10-25T04:52:23.769Z,16.39
2022-10-25T04:54:50.256Z,16.43
2022-10-25T04:57:16.814Z,16.42
2022-10-25T04:59:43.343Z,16.45
2022-10-25T05:02:09.853Z,16.44
2022-10-25T05:04:36.387Z,16.42
2022-10-25T05:07:02.906Z,16.47
2022-10-25T05:09:29.578Z,16.45
2022-10-25T05:11:56.129Z,16.52
2022-10-25T05:14:22.657Z,16.51
2022-10-25T05:16:49.129Z,16.56
2022-10-25T05:19:15.700Z,16.47
2022-10-25T05:21:42.260Z,16.48
2022-10-25T05:24:08.708Z,16.44
2022-10-25T05:26:35.353Z,16.41
2022-10-25T05:29:03.669Z,16.35
2022-10-25T05:31:32.145Z,16.36
2022-10-25T05:34:00.713Z,16.38
2022-10-25T05:36:28.327Z,16.31
2022-10-25T05:38:55.522Z,16.30
2022-10-25T05:41:22.173Z,16.33
2022-10-25T05:43:48.720Z,16.29
2022-10-25T05:46:18.603Z,16.26
2022-10-25T05:48:48.709Z,16.27
2022-10-25T05:51:40.050Z,16.27
2022-10-25T05:54:11.407Z,16.20
2022-10-25T05:56:39.329Z,16.22
2022-10-25T05:59:09.435Z,16.24
2022-10-25T06:01:38.643Z,16.19
2022-10-25T06:04:06.119Z,16.16
2022-10-25T06:06:33.007Z,16.14
2022-10-25T06:09:01.637Z,16.11
2022-10-25T06:11:29.298Z,16.12
2022-10-25T06:13:56.043Z,16.09
2022-10-25T06:16:23.700Z,16.10
2022-10-25T06:18:50.500Z,16.11
2022-10-25T06:21:20.309Z,16.12
2022-10-25T06:23:48.258Z,15.99
2022-10-25T06:26:17.834Z,16.12
2022-10-25T06:28:44.532Z,16.09
2022-10-25T06:31:16.349Z,16.11
2022-10-25T06:33:43.784Z,16.19
2022-10-25T06:36:17.670Z,16.18
2022-10-25T06:38:45.548Z,16.17
2022-10-25T06:41:14.912Z,16.04
2022-10-25T06:43:41.485Z,15.75
2022-10-25T06:46:11.044Z,15.97
2022-10-25T06:48:38.157Z,15.90
2022-10-25T06:51:07.156Z,16.01
2022-10-25T06:53:33.641Z,15.65
2022-10-25T06:56:06.579Z,16.05
2022-10-25T06:58:36.547Z,16.21
2022-10-25T07:01:05.710Z,16.17
2022-10-25T07:03:33.190Z,16.33
2022-10-25T07:06:01.292Z,16.47
2022-10-25T07:08:27.848Z,16.57
2022-10-25T07:10:55.779Z,16.67
2022-10-25T07:13:22.809Z,16.78
2022-10-25T07:15:49.301Z,16.70
2022-10-25T07:18:16.008Z,16.48
2022-10-25T07:20:42.456Z,16.63
2022-10-25T07:23:08.985Z,16.69
2022-10-25T07:25:35.458Z,16.66
2022-10-25T07:28:01.913Z,16.86
2022-10-25T07:30:28.356Z,16.94
2022-10-25T07:32:54.804Z,16.97
2022-10-25T07:35:21.244Z,17.11
2022-10-25T07:37:47.976Z,17.16
2022-10-25T07:40:14.603Z,17.23
2022-10-25T07:42:41.082Z,17.32
2022-10-25T07:45:08.353Z,17.43
2022-10-25T07:47:34.853Z,17.51
2022-10-25T07:50:01.288Z,17.46
2022-10-25T07:52:27.716Z,17.57
2022-10-25T07:54:54.183Z,17.69
2022-10-25T07:57:20.640Z,17.75
2022-10-25T07:59:47.110Z,17.50
2022-10-25T08:02:14.771Z,17.81
2022-10-25T08:04:42.378Z,17.96
2022-10-25T08:07:08.818Z,18.09
2022-10-25T08:09:38.225Z,18.06
2022-10-25T08:12:05.181Z,18.28
2022-10-25T08:14:33.035Z,18.38
2022-10-25T08:17:02.089Z,18.33
2022-10-25T08:19:28.625Z,18.37
2022-10-25T08:21:55.300Z,18.59
2022-10-25T08:24:21.994Z,18.30
2022-10-25T08:26:52.804Z,18.68
2022-10-25T08:29:19.645Z,18.81
2022-10-25T08:31:46.229Z,18.80
2022-10-25T08:34:12.957Z,18.71
2022-10-25T08:36:39.579Z,18.85
2022-10-25T08:39:06.373Z,18.86
2022-10-25T08:41:45.486Z,18.90
2022-10-25T08:44:35.346Z,18.98
2022-10-25T08:47:22.418Z,18.94
2022-10-25T08:49:55.140Z,18.88
2022-10-25T08:52:25.946Z,19.01
2022-10-25T08:54:59.269Z,18.95
2022-10-25T08:57:34.037Z,19.00
2022-10-25T09:00:05.901Z,18.83
2022-10-25T09:02:55.487Z,18.96
2022-10-25T09:05:50.152Z,18.91
2022-10-25T09:27:23.068Z,19.43
2022-10-25T09:30:00.476Z,19.66
2022-10-25T09:32:39.860Z,19.55
2022-10-25T09:35:22.291Z,19.49
2022-10-25T09:37:53.350Z,19.45
2022-10-25T09:40:28.332Z,19.45
2022-10-25T09:43:02.210Z,19.56
2022-10-25T09:45:49.612Z,19.44
2022-10-25T09:48:38.200Z,19.44
2022-10-25T09:51:25.033Z,19.47
2022-10-25T09:53:54.995Z,19.45
2022-10-25T09:56:22.236Z,19.35
2022-10-25T09:58:49.309Z,19.56
2022-10-25T10:01:29.834Z,19.48
2022-10-25T10:04:15.677Z,19.69
2022-10-25T10:06:42.996Z,19.52
2022-10-25T10:09:14.620Z,19.15
2022-10-25T10:11:44.479Z,19.51
2022-10-25T10:14:22.550Z,19.59
2022-10-25T10:16:55.098Z,19.70
2022-10-25T10:19:27.901Z,19.70
2022-10-25T10:22:02.034Z,19.80
2022-10-25T10:24:36.736Z,19.88
2022-10-25T10:27:27.972Z,20.04
2022-10-25T10:30:07.101Z,19.96
2022-10-25T10:32:37.869Z,20.00
2022-10-25T10:35:27.768Z,19.85
2022-10-25T10:38:22.734Z,19.75
2022-10-25T10:40:53.707Z,19.84
2022-10-25T10:43:31.330Z,19.71
2022-10-25T10:46:03.946Z,19.72
2022-10-25T10:48:42.126Z,19.65
2022-10-25T10:51:32.035Z,19.49
2022-10-25T10:54:24.475Z,19.62
2022-10-25T10:56:59.926Z,19.51
2022-10-25T10:59:52.219Z,19.17
2022-10-25T11:02:42.704Z,19.39
2022-10-25T11:05:26.700Z,19.29
2022-10-25T11:08:19.733Z,19.25
2022-10-25T11:10:47.153Z,19.34
2022-10-25T11:13:21.113Z,19.49
2022-10-25T11:16:23.140Z,19.54
2022-10-25T11:18:55.721Z,19.37
2022-10-25T11:21:52.249Z,19.72
2022-10-25T11:24:40.680Z,19.86
2022-10-25T11:27:35.048Z,19.78
2022-10-25T11:30:18.020Z,19.67
2022-10-25T11:33:19.227Z,19.75
2022-10-25T11:36:02.801Z,19.21
2022-10-25T11:39:09.602Z,19.41
2022-10-25T11:41:53.746Z,19.32
2022-10-25T11:44:52.106Z,19.54
2022-10-25T11:48:04.337Z,19.43
2022-10-25T11:50:43.471Z,19.74
2022-10-25T11:53:46.316Z,19.66
2022-10-25T11:56:26.025Z,19.45
2022-10-25T11:59:17.703Z,19.38
2022-10-25T12:02:03.829Z,19.45
2022-10-25T12:10:39.807Z,19.73
2022-10-25T12:16:13.686Z,20.08
2022-10-25T12:27:51.035Z,20.30
2022-10-25T12:30:27.141Z,20.61
2022-10-25T12:33:37.074Z,20.39
2022-10-25T12:36:17.130Z,20.50
2022-10-25T12:48:19.419Z,20.41
2022-10-25T12:52:07.627Z,20.77
2022-10-25T12:55:00.073Z,21.01
2022-10-25T12:57:39.444Z,21.06
2022-10-25T13:03:10.026Z,21.49
2022-10-25T13:13:02.669Z,21.83
2022-10-25T13:15:48.966Z,22.00
2022-10-25T13:18:50.514Z,22.36
2022-10-25T13:21:53.409Z,22.12
2022-10-25T13:33:37.994Z,22.57
2022-10-25T13:36:12.617Z,22.67
2022-10-25T13:38:42.914Z,22.78
2022-10-25T13:41:20.753Z,22.62
2022-10-25T13:44:13.740Z,22.28
2022-10-25T13:46:42.278Z,22.48
2022-10-25T13:49:34.720Z,22.27
2022-10-25T13:52:34.809Z,22.29
2022-10-25T13:55:09.881Z,22.42
2022-10-25T14:07:35.390Z,22.13
2022-10-25T14:10:07.332Z,22.13
2022-10-25T14:12:43.371Z,22.14
2022-10-25T14:15:35.765Z,22.06
2022-10-25T14:18:19.083Z,21.93
2022-10-25T14:20:50.474Z,21.90
2022-10-25T14:23:25.843Z,21.89
2022-10-25T14:31:48.648Z,21.72
2022-10-25T14:34:26.737Z,21.62
2022-10-25T14:36:58.297Z,21.47
2022-10-25T14:39:32.107Z,21.43
2022-10-25T14:42:20.246Z,21.30
2022-10-25T14:56:06.239Z,20.84
2022-10-25T14:58:44.141Z,20.92
2022-10-25T15:01:20.602Z,20.95
2022-10-25T15:03:56.340Z,21.08
2022-10-25T15:06:27.800Z,20.81
2022-10-25T15:09:23.046Z,20.95
2022-10-25T15:12:11.485Z,21.10
2022-10-25T15:14:47.411Z,21.24
2022-10-25T15:20:15.638Z,21.29
2022-10-25T15:22:47.683Z,21.36
2022-10-25T15:25:26.988Z,21.44
2022-10-25T15:27:56.285Z,21.46
2022-10-25T15:33:46.088Z,21.38
2022-10-25T15:36:27.272Z,21.36
2022-10-25T15:39:08.998Z,21.28
2022-10-25T15:44:19.112Z,20.68
2022-10-25T15:46:48.280Z,20.61
2022-10-25T15:54:56.494Z,20.46
2022-10-25T15:57:23.918Z,20.17
2022-10-25T15:59:51.918Z,19.94
2022-10-25T16:02:31.158Z,20.02
2022-10-25T16:04:59.951Z,20.17
2022-10-25T16:07:33.207Z,20.16
2022-10-25T16:10:03.875Z,20.07
2022-10-25T16:23:50.844Z,19.80
2022-10-25T16:26:39.740Z,19.92
2022-10-25T16:29:10.658Z,19.97
2022-10-25T16:31:38.282Z,20.03
2022-10-25T16:34:06.141Z,19.91
2022-10-25T16:36:33.752Z,20.01
2022-10-25T16:39:01.376Z,20.02
2022-10-25T16:41:30.994Z,20.02
2022-10-25T16:44:00.349Z,19.96
2022-10-25T16:46:28.233Z,19.89
2022-10-25T16:48:57.071Z,19.90
2022-10-25T16:51:36.779Z,19.86
2022-10-25T16:54:11.508Z,19.85
2022-10-25T16:56:42.675Z,19.83
2022-10-25T16:59:15.553Z,19.82
2022-10-25T17:01:44.694Z,19.78
2022-10-25T17:04:19.399Z,19.80
2022-10-25T17:06:53.716Z,19.76
2022-10-25T17:09:22.096Z,19.72
2022-10-25T17:11:57.790Z,19.62
2022-10-25T17:14:26.742Z,19.54
2022-10-25T17:17:00.830Z,19.57
2022-10-25T17:19:37.811Z,19.38
2022-10-25T17:22:08.235Z,19.35
2022-10-25T17:24:35.566Z,19.33
2022-10-25T17:27:08.278Z,19.31
2022-10-25T17:29:35.531Z,19.33
2022-10-25T17:32:03.098Z,19.08
2022-10-25T17:34:33.402Z,18.94
2022-10-25T17:37:03.653Z,18.98
2022-10-25T17:39:31.179Z,18.99
2022-10-25T17:42:01.091Z,19.11
2022-10-25T17:44:28.534Z,19.00
2022-10-25T17:46:58.344Z,18.90
2022-10-25T17:49:29.065Z,18.64
2022-10-25T17:51:58.710Z,18.80
2022-10-25T17:54:27.090Z,18.81
2022-10-25T17:56:58.574Z,18.75
2022-10-25T17:59:28.818Z,18.78
2022-10-25T18:01:58.171Z,18.78
2022-10-25T18:04:40.774Z,18.79
2022-10-25T18:07:19.972Z,18.80
2022-10-25T18:09:48.028Z,18.71
2022-10-25T18:12:15.263Z,18.69
2022-10-25T18:17:57.763Z,18.72
2022-10-25T18:20:31.733Z,18.74
2022-10-25T18:23:18.601Z,18.75
2022-10-25T18:28:35.060Z,18.81
2022-10-25T18:56:40.988Z,18.83
2022-10-25T19:04:34.247Z,18.80
2022-10-25T19:07:00.864Z,18.69
2022-10-25T19:09:27.313Z,18.76
2022-10-25T19:11:54.211Z,18.82
2022-10-25T19:14:20.658Z,18.69
2022-10-25T19:16:47.096Z,18.55
2022-10-25T19:19:13.535Z,18.80
2022-10-25T19:21:39.961Z,18.79
2022-10-25T19:24:06.733Z,18.73
2022-10-25T19:26:33.202Z,18.81
2022-10-25T19:29:00.867Z,18.84
2022-10-25T19:31:28.479Z,18.79
2022-10-25T19:33:55.170Z,18.68
2022-10-25T19:36:21.734Z,18.59
2022-10-25T19:38:48.880Z,18.64
2022-10-25T19:41:21.116Z,18.68
2022-10-25T19:43:47.585Z,18.27
2022-10-25T19:46:15.089Z,18.59
2022-10-25T19:48:42.182Z,18.65
2022-10-25T19:51:14.462Z,18.74
2022-10-25T19:53:41.135Z,18.78
2022-10-25T19:56:19.747Z,18.86
2022-10-25T19:58:46.459Z,18.70
2022-10-25T20:01:20.508Z,18.83
2022-10-25T20:03:50.815Z,18.87
2022-10-25T20:06:24.241Z,18.95
2022-10-25T20:08:52.920Z,19.01
2022-10-25T20:11:19.679Z,19.00
2022-10-25T20:13:46.642Z,19.02
2022-10-25T20:16:13.953Z,19.04
2022-10-25T20:18:42.292Z,19.10
2022-10-25T20:21:20.152Z,19.09
2022-10-25T20:23:48.692Z,19.04
2022-10-25T20:26:18.151Z,19.04
2022-10-25T20:28:45.027Z,19.04
2022-10-25T20:31:12.894Z,18.90
2022-10-25T20:33:39.771Z,18.99
2022-10-25T20:36:10.486Z,18.92
2022-10-25T20:38:37.804Z,19.01
2022-10-25T20:41:22.293Z,18.87
2022-10-25T20:43:52.803Z,18.91
2022-10-25T20:46:21.276Z,18.94
2022-10-25T20:48:47.812Z,18.95
2022-10-25T20:51:15.969Z,18.97
2022-10-25T20:53:43.679Z,18.96
2022-10-25T20:56:11.717Z,18.93
2022-10-25T20:58:38.562Z,18.92
2022-10-25T21:01:05.414Z,18.91
2022-10-25T21:03:32.589Z,18.90
2022-10-25T21:06:01.764Z,18.85
2022-10-25T21:08:28.284Z,18.86
2022-10-25T21:11:01.000Z,18.84
2022-10-25T21:13:30.679Z,18.86
2022-10-25T21:15:57.749Z,18.91
2022-10-25T21:18:28.324Z,18.88
2022-10-25T21:21:01.088Z,18.88
2022-10-25T21:23:28.049Z,18.80
2022-10-25T21:26:01.876Z,18.76
2022-10-25T21:28:33.482Z,18.82
2022-10-25T21:31:03.096Z,18.82
2022-10-25T21:33:29.819Z,18.85
2022-10-25T21:36:02.228Z,18.89
2022-10-25T21:38:28.787Z,18.90
2022-10-25T21:40:55.292Z,18.91
2022-10-25T21:43:21.826Z,18.90
2022-10-25T21:45:48.324Z,18.86
2022-10-25T21:48:14.873Z,18.79
2022-10-25T21:50:41.356Z,18.88
2022-10-25T21:53:07.956Z,18.69
2022-10-25T21:55:34.476Z,18.75
2022-10-25T21:58:00.965Z,18.80
2022-10-25T22:00:27.518Z,18.73
2022-10-25T22:02:54.000Z,18.71
2022-10-25T22:05:20.516Z,18.69
2022-10-25T22:07:47.467Z,18.63
2022-10-25T22:10:15.310Z,18.62
2022-10-25T22:12:41.798Z,18.64
2022-10-25T22:15:14.566Z,18.64
2022-10-25T22:17:41.125Z,18.58
2022-10-25T22:20:08.209Z,18.54
2022-10-25T22:22:34.719Z,18.52
2022-10-25T22:25:01.286Z,18.46
2022-10-25T22:27:27.797Z,18.46
2022-10-25T22:29:54.298Z,18.43
2022-10-25T22:32:22.087Z,18.44
2022-10-25T22:34:48.648Z,18.46
2022-10-25T22:37:15.196Z,18.45
2022-10-25T22:39:41.801Z,18.42
2022-10-25T22:42:08.291Z,18.43
2022-10-25T22:44:34.771Z,18.41
2022-10-25T22:47:01.376Z,18.40
2022-10-25T22:49:27.874Z,18.38
2022-10-25T22:51:54.359Z,18.26
2022-10-25T22:54:20.829Z,18.32
2022-10-25T22:56:47.326Z,18.32
2022-10-25T22:59:13.843Z,18.29
2022-10-25T23:01:40.347Z,18.37
2022-10-25T23:04:08.943Z,18.45
2022-10-25T23:06:38.441Z,18.45
2022-10-25T23:09:07.681Z,18.37
2022-10-25T23:11:37.369Z,18.15
2022-10-25T23:14:04.213Z,18.26
2022-10-25T23:16:30.718Z,18.25
2022-10-25T23:18:57.472Z,18.25
2022-10-25T23:21:28.820Z,18.20
2022-10-25T23:23:57.672Z,17.90
2022-10-25T23:26:30.918Z,18.09
2022-10-25T23:28:58.646Z,18.17
2022-10-25T23:31:26.313Z,18.12
2022-10-25T23:33:55.556Z,17.95
2022-10-25T23:36:25.181Z,17.67
2022-10-25T23:38:52.961Z,17.37
2022-10-25T23:41:21.236Z,17.50
2022-10-25T23:43:48.316Z,17.87
2022-10-25T23:46:14.774Z,17.19
2022-10-25T23:48:43.003Z,16.25
2022-10-25T23:51:16.303Z,15.57
2022-10-25T23:53:43.005Z,14.97
2022-10-25T23:56:12.185Z,14.88
2022-10-25T23:58:38.731Z,15.19
